Mia Kelley — WDD3950 — position and weather

sailwx.info

Track history (hours):
 
Tides and Currents Weather Stations Pressure Air Temp Water Temp Dewpoint Dewpoint Depression Visibility Wind Speed Wind Dir Waves Ship Positions

Mia Kelley

Owner: Florida Marine, LLC, Mandeville, LA. More information available from US FCC via Universal Licensing System and Coast Guard Vessel Documentation Center.

Last reported at 2017-Dec-16 15:47 UTC. Time now 2017-Dec-16 16:52 UTC.
Position N 30°03' W 093°43'.

Length 27 m; draft 2.8 m.

Type: Towing. MMSI: 367138470.

Date/timePositionNaut miles runAvg speedWind from/ knotsBaromVisibWave heightAir tempDewpointWater temp
2017-Dec-16 15:47N 30°03' W 093°43'1 4.0
2017-Dec-16 15:30N 30°04' W 093°41'3 5.6
2017-Dec-16 15:00N 30°04' W 093°38'3 6.0
2017-Dec-16 14:30N 30°04' W 093°35'3 5.6
2017-Dec-16 14:00N 30°04' W 093°31'2 4.8
2017-Dec-16 13:30N 30°04' W 093°29'3 5.3
2017-Dec-16 13:00N 30°04' W 093°25'3 5.2
2017-Dec-16 12:30N 30°04' W 093°22'2 4.7
2017-Dec-16 12:00N 30°05' W 093°20'2 4.1
2017-Dec-16 11:27N 30°07' W 093°20'1 2.7
2017-Dec-16 10:58N 30°08' W 093°19'0 0.0
2017-Dec-16 10:16N 30°08' W 093°19'0 0.0
2017-Dec-16 09:57N 30°08' W 093°19'0 0.0
2017-Dec-16 09:30N 30°08' W 093°19'0 0.0
2017-Dec-16 09:00N 30°08' W 093°19'0 0.0
2017-Dec-16 08:30N 30°08' W 093°19'0 0.0
2017-Dec-16 08:00N 30°08' W 093°19'0 0.0
2017-Dec-16 07:30N 30°08' W 093°19'0 0.0
2017-Dec-16 07:00N 30°08' W 093°19'0 0.0
2017-Dec-16 06:30N 30°08' W 093°19'0 0.0
2017-Dec-16 06:00N 30°08' W 093°19'0 0.0
2017-Dec-16 05:30N 30°08' W 093°19'0 0.0
2017-Dec-16 05:00N 30°08' W 093°19'0 0.0
2017-Dec-16 04:30N 30°08' W 093°19'0 0.0
2017-Dec-16 04:00N 30°08' W 093°19'0 0.0
2017-Dec-16 03:30N 30°08' W 093°19'0 0.0
2017-Dec-16 03:00N 30°08' W 093°19'0 0.0
2017-Dec-16 02:30N 30°08' W 093°19'0 0.0
2017-Dec-16 02:00N 30°08' W 093°19'0 0.0
2017-Dec-16 01:30N 30°08' W 093°19'0 0.0
2017-Dec-16 01:00N 30°08' W 093°19'0 0.0
2017-Dec-16 00:30N 30°08' W 093°19'0 0.0
2017-Dec-16 00:00N 30°08' W 093°19'0 0.0
2017-Dec-15 23:30N 30°08' W 093°19'0 0.0
2017-Dec-15 23:00N 30°08' W 093°19'0 0.0
2017-Dec-15 22:30N 30°08' W 093°19'0 0.0
2017-Dec-15 22:00N 30°08' W 093°19'0 0.0
2017-Dec-15 21:30N 30°08' W 093°19'0 0.0
2017-Dec-15 21:00N 30°08' W 093°19'0 0.0
2017-Dec-15 20:30N 30°08' W 093°19'0 0.0
2017-Dec-15 20:00N 30°08' W 093°19'0 0.1
2017-Dec-15 19:30N 30°08' W 093°19'0 0.2
2017-Dec-15 19:00N 30°08' W 093°19'1 1.4
2017-Dec-15 18:30N 30°08' W 093°20'1 2.2
2017-Dec-15 18:00N 30°07' W 093°20'2 4.1
2017-Dec-15 17:30N 30°05' W 093°20'2 3.9
2017-Dec-15 17:00N 30°04' W 093°22'2 4.5
2017-Dec-15 16:30N 30°04' W 093°25'2 4.5
2017-Dec-15 16:00N 30°04' W 093°27'2 4.4
2017-Dec-15 15:30N 30°04' W 093°30'2 4.3
2017-Dec-15 15:00N 30°04' W 093°32'2 4.3
2017-Dec-15 14:30N 30°04' W 093°35'2 4.3
2017-Dec-15 13:56N 30°04' W 093°38'  
Track history (hours):
 
Tides and Currents Weather Stations Pressure Air Temp Water Temp Dewpoint Dewpoint Depression Visibility Wind Speed Wind Dir Waves Ship Positions

Mia Kelley

Owner: Florida Marine, LLC, Mandeville, LA. More information available from US FCC via Universal Licensing System and Coast Guard Vessel Documentation Center.

Last reported at 2017-Dec-16 15:47 UTC. Time now 2017-Dec-16 16:52 UTC.
Position N 30°03' W 093°43'.

Length 27 m; draft 2.8 m.

Type: Towing. MMSI: 367138470.

Date/timePositionNaut miles runAvg speedWind from/ knotsBaromVisibWave heightAir tempDewpointWater temp
2017-Dec-16 15:47N 30°03' W 093°43'1 4.0
2017-Dec-16 15:30N 30°04' W 093°41'3 5.6
2017-Dec-16 15:00N 30°04' W 093°38'3 6.0
2017-Dec-16 14:30N 30°04' W 093°35'3 5.6
2017-Dec-16 14:00N 30°04' W 093°31'2 4.8
2017-Dec-16 13:30N 30°04' W 093°29'3 5.3
2017-Dec-16 13:00N 30°04' W 093°25'3 5.2
2017-Dec-16 12:30N 30°04' W 093°22'2 4.7
2017-Dec-16 12:00N 30°05' W 093°20'2 4.1
2017-Dec-16 11:27N 30°07' W 093°20'1 2.7
2017-Dec-16 10:58N 30°08' W 093°19'0 0.0
2017-Dec-16 10:16N 30°08' W 093°19'0 0.0
2017-Dec-16 09:57N 30°08' W 093°19'0 0.0
2017-Dec-16 09:30N 30°08' W 093°19'0 0.0
2017-Dec-16 09:00N 30°08' W 093°19'0 0.0
2017-Dec-16 08:30N 30°08' W 093°19'0 0.0
2017-Dec-16 08:00N 30°08' W 093°19'0 0.0
2017-Dec-16 07:30N 30°08' W 093°19'0 0.0
2017-Dec-16 07:00N 30°08' W 093°19'0 0.0
2017-Dec-16 06:30N 30°08' W 093°19'0 0.0
2017-Dec-16 06:00N 30°08' W 093°19'0 0.0
2017-Dec-16 05:30N 30°08' W 093°19'0 0.0
2017-Dec-16 05:00N 30°08' W 093°19'0 0.0
2017-Dec-16 04:30N 30°08' W 093°19'0 0.0
2017-Dec-16 04:00N 30°08' W 093°19'0 0.0
2017-Dec-16 03:30N 30°08' W 093°19'0 0.0
2017-Dec-16 03:00N 30°08' W 093°19'0 0.0
2017-Dec-16 02:30N 30°08' W 093°19'0 0.0
2017-Dec-16 02:00N 30°08' W 093°19'0 0.0
2017-Dec-16 01:30N 30°08' W 093°19'0 0.0
2017-Dec-16 01:00N 30°08' W 093°19'0 0.0
2017-Dec-16 00:30N 30°08' W 093°19'0 0.0
2017-Dec-16 00:00N 30°08' W 093°19'0 0.0
2017-Dec-15 23:30N 30°08' W 093°19'0 0.0
2017-Dec-15 23:00N 30°08' W 093°19'0 0.0
2017-Dec-15 22:30N 30°08' W 093°19'0 0.0
2017-Dec-15 22:00N 30°08' W 093°19'0 0.0
2017-Dec-15 21:30N 30°08' W 093°19'0 0.0
2017-Dec-15 21:00N 30°08' W 093°19'0 0.0
2017-Dec-15 20:30N 30°08' W 093°19'0 0.0
2017-Dec-15 20:00N 30°08' W 093°19'0 0.1
2017-Dec-15 19:30N 30°08' W 093°19'0 0.2
2017-Dec-15 19:00N 30°08' W 093°19'1 1.4
2017-Dec-15 18:30N 30°08' W 093°20'1 2.2
2017-Dec-15 18:00N 30°07' W 093°20'2 4.1
2017-Dec-15 17:30N 30°05' W 093°20'2 3.9
2017-Dec-15 17:00N 30°04' W 093°22'2 4.5
2017-Dec-15 16:30N 30°04' W 093°25'2 4.5
2017-Dec-15 16:00N 30°04' W 093°27'2 4.4
2017-Dec-15 15:30N 30°04' W 093°30'2 4.3
2017-Dec-15 15:00N 30°04' W 093°32'2 4.3
2017-Dec-15 14:30N 30°04' W 093°35'2 4.3
2017-Dec-15 13:56N 30°04' W 093°38'  

Dump ship's entire track history